Time;durP1;ratioP1;P1;durP2;ratioP2;P2;SDS_P1;SDS_P2;PMS_P1;PMS_P2;Temp;Humidity;BMP_temperature;BMP_pressure;BME280_temperature;BME280_humidity;BME280_pressure;Samples;Min_cycle;Max_cycle;Signal;HPM_P1;HPM_P2
2022/04/21 00:00:16;;;;;;;10.00;5.93;;;;;;;19.35;37.40;101559.88;5036896;28;20029;-73
2022/04/21 00:02:42;;;;;;;10.97;7.00;;;;;;;18.16;39.66;101557.56;5028688;28;20041;-72
2022/04/21 00:05:08;;;;;;;8.20;5.70;;;;;;;19.45;37.46;101556.00;5041080;28;20112;-72
2022/04/21 00:07:34;;;;;;;10.40;6.57;;;;;;;19.54;36.84;101545.97;5048681;28;20028;-72
2022/04/21 00:10:00;;;;;;;9.33;6.20;;;;;;;19.14;37.58;101548.25;5030451;28;20473;-72
2022/04/21 00:12:26;;;;;;;13.33;6.30;;;;;;;18.71;38.42;101547.88;5033263;28;20029;-72
2022/04/21 00:14:51;;;;;;;11.63;6.00;;;;;;;17.92;40.06;101542.38;5038044;28;20035;-72
2022/04/21 00:17:17;;;;;;;9.13;6.13;;;;;;;19.02;38.31;101541.56;5050190;28;20476;-72
2022/04/21 00:19:42;;;;;;;12.03;6.57;;;;;;;18.55;38.64;101541.34;5048425;28;20086;-72
2022/04/21 00:24:51;;;;;;;8.43;5.70;;;;;;;17.80;39.73;101547.97;5049969;28;20043;-72
2022/04/21 00:27:17;;;;;;;10.80;6.57;;;;;;;18.79;37.82;101540.56;5047897;28;20025;-72
2022/04/21 00:29:46;;;;;;;8.60;5.40;;;;;;;18.97;37.65;101543.50;5047900;28;20490;-72
2022/04/21 00:32:12;;;;;;;8.27;6.13;;;;;;;18.68;38.06;101542.66;5048473;28;20369;-72
2022/04/21 00:34:37;;;;;;;9.70;5.70;;;;;;;18.71;37.99;101547.88;5048527;28;20029;-73
2022/04/21 00:37:03;;;;;;;10.43;5.47;;;;;;;18.70;37.52;101540.84;5036358;28;20035;-72
2022/04/21 00:39:32;;;;;;;9.10;5.67;;;;;;;18.92;37.11;101542.81;5062083;28;20056;-72
2022/04/21 00:42:02;;;;;;;8.37;5.67;;;;;;;18.63;37.57;101547.28;5029549;28;20052;-72
2022/04/21 00:44:33;;;;;;;8.57;5.47;;;;;;;18.32;37.78;101545.59;5046601;28;20032;-72
2022/04/21 00:47:03;;;;;;;9.43;5.70;;;;;;;17.80;38.87;101546.22;5038828;28;20037;-72
2022/04/21 00:49:30;;;;;;;12.63;5.50;;;;;;;17.92;38.68;101533.56;5046953;28;20458;-71
2022/04/21 00:51:55;;;;;;;10.03;5.50;;;;;;;19.17;36.51;101542.84;5048153;28;20025;-72
2022/04/21 00:54:22;;;;;;;8.67;5.30;;;;;;;19.02;36.64;101541.56;5048779;28;20529;-73
2022/04/21 00:56:48;;;;;;;16.53;6.80;;;;;;;18.38;37.67;101545.41;5039866;28;20025;-72
2022/04/21 00:59:13;;;;;;;9.13;5.63;;;;;;;18.26;37.72;101541.34;5046633;28;20047;-73
2022/04/21 01:04:24;;;;;;;12.57;6.60;;;;;;;18.96;36.51;101531.22;5073400;28;20509;-73
2022/04/21 01:06:53;;;;;;;8.83;5.70;;;;;;;18.55;37.50;101536.91;5041212;28;20034;-71
2022/04/21 01:09:18;;;;;;;9.80;5.83;;;;;;;19.23;36.21;101539.09;5043031;28;20558;-72
2022/04/21 01:11:45;;;;;;;11.77;5.93;;;;;;;18.18;38.31;101539.88;5046932;28;20075;-72
2022/04/21 01:14:13;;;;;;;9.90;5.60;;;;;;;18.37;38.36;101529.56;5027393;28;20044;-72
2022/04/21 01:16:38;;;;;;;9.60;6.07;;;;;;;17.81;38.60;101545.28;5048654;28;20403;-72
2022/04/21 01:19:04;;;;;;;11.47;5.83;;;;;;;18.46;37.38;101546.03;5027830;28;20087;-72
2022/04/21 01:21:32;;;;;;;10.83;5.37;;;;;;;19.11;36.30;101549.22;5047674;28;20049;-72
2022/04/21 01:23:58;;;;;;;7.57;5.03;;;;;;;18.09;38.31;101538.34;5050966;28;20029;-72
2022/04/21 01:26:27;;;;;;;13.20;6.37;;;;;;;18.21;37.97;101542.41;5051813;28;20136;-72
2022/04/21 01:28:54;;;;;;;15.20;5.40;;;;;;;18.31;37.86;101543.84;5033333;28;20032;-72
2022/04/21 01:31:22;;;;;;;10.97;5.60;;;;;;;18.29;38.35;101535.09;5041266;28;20481;-72
2022/04/21 01:33:47;;;;;;;10.73;5.63;;;;;;;18.86;36.99;101529.75;5051175;28;20078;-72
2022/04/21 01:36:13;;;;;;;9.53;6.17;;;;;;;18.69;37.03;101528.53;5045379;28;21262;-72
2022/04/21 01:41:22;;;;;;;7.80;4.97;;;;;;;18.26;37.33;101525.47;5044082;28;20112;-72
2022/04/21 01:43:47;;;;;;;10.07;5.83;;;;;;;17.30;39.27;101532.63;5047866;28;20052;-72
2022/04/21 01:46:13;;;;;;;8.90;5.40;;;;;;;17.23;40.07;101533.72;5049147;28;20029;-72
2022/04/21 01:48:38;;;;;;;10.47;5.50;;;;;;;17.88;37.98;101529.25;5050474;28;20098;-72
2022/04/21 01:51:03;;;;;;;11.70;5.40;;;;;;;17.88;38.26;101521.31;5042156;28;20036;-72
2022/04/21 01:53:30;;;;;;;8.50;5.50;;;;;;;17.24;38.87;101524.84;5050540;28;20043;-72
2022/04/21 01:55:56;;;;;;;7.70;5.33;;;;;;;17.57;38.61;101524.84;5052273;28;20036;-72
2022/04/21 01:58:21;;;;;;;10.10;5.77;;;;;;;18.41;36.62;101523.25;5051943;28;20033;-72
2022/04/21 02:00:46;;;;;;;8.60;5.50;;;;;;;18.30;37.26;101515.66;5035079;28;20116;-72
2022/04/21 02:03:12;;;;;;;10.83;5.77;;;;;;;18.53;36.68;101522.84;5047235;28;20365;-72
2022/04/21 02:05:37;;;;;;;9.60;6.10;;;;;;;17.64;38.53;101529.06;5042507;28;20107;-72
2022/04/21 02:08:03;;;;;;;9.10;5.53;;;;;;;18.30;37.14;101515.66;5044237;28;20172;-72
2022/04/21 02:10:30;;;;;;;9.57;4.87;;;;;;;18.78;36.15;101520.28;5046403;28;20159;-72
2022/04/21 02:12:56;;;;;;;10.20;5.70;;;;;;;17.76;38.16;101514.59;5047930;28;20037;-72
2022/04/21 02:15:23;;;;;;;9.57;5.57;;;;;;;17.18;39.20;101523.25;5039985;28;20472;-72
2022/04/21 02:17:49;;;;;;;11.30;5.90;;;;;;;16.94;39.78;101522.16;5051985;28;20106;-72
2022/04/21 02:20:16;;;;;;;11.90;5.63;;;;;;;18.06;37.93;101515.50;5048435;28;20056;-72
2022/04/21 02:22:42;;;;;;;9.23;5.57;;;;;;;17.79;38.13;101507.47;5049799;28;20053;-72
2022/04/21 02:25:09;;;;;;;9.43;5.00;;;;;;;16.72;40.30;101519.13;5036290;28;20488;-72
2022/04/21 02:27:41;;;;;;;8.83;5.40;;;;;;;17.34;39.38;101510.50;5050071;28;20483;-72
2022/04/21 02:30:07;;;;;;;10.83;5.47;;;;;;;17.34;39.02;101507.88;5062285;28;20029;-72
2022/04/21 02:32:34;;;;;;;10.90;5.40;;;;;;;17.19;39.51;101500.38;5030982;28;20034;-72
2022/04/21 02:34:59;;;;;;;8.90;5.43;;;;;;;16.44;40.79;101510.13;5038854;28;20045;-72
2022/04/21 02:37:25;;;;;;;12.37;6.37;;;;;;;16.82;40.50;101503.94;5051427;28;20035;-72
2022/04/21 02:39:51;;;;;;;9.33;5.30;;;;;;;17.15;39.45;101498.72;5050661;28;20069;-72
2022/04/21 02:42:17;;;;;;;11.20;5.73;;;;;;;17.12;39.87;101500.53;5032035;28;20032;-72
2022/04/21 02:44:42;;;;;;;10.13;5.77;;;;;;;17.23;39.76;101492.31;5049724;28;20045;-72
2022/04/21 02:47:08;;;;;;;12.40;5.73;;;;;;;17.65;38.15;101496.41;5049636;28;20547;-72
2022/04/21 02:49:36;;;;;;;11.60;5.97;;;;;;;16.76;40.14;101497.03;5047883;28;20535;-72
2022/04/21 02:52:06;;;;;;;12.27;5.83;;;;;;;17.65;38.33;101491.13;5046279;28;20037;-72
2022/04/21 02:57:22;;;;;;;13.53;5.90;;;;;;;17.25;39.28;101497.53;5034351;28;20373;-72
2022/04/21 02:59:56;;;;;;;11.38;5.50;;;;;;;17.78;38.64;101492.50;5045825;28;20025;-72
2022/04/21 03:02:23;;;;;;;11.00;5.93;;;;;;;17.11;39.67;101509.34;5039881;28;20028;-72
2022/04/21 03:04:52;;;;;;;10.50;5.80;;;;;;;17.35;38.76;101496.41;5048976;28;20031;-72
2022/04/21 03:07:20;;;;;;;13.70;5.77;;;;;;;17.37;38.90;101502.50;5049278;28;20093;-72
2022/04/21 03:09:45;;;;;;;10.10;5.70;;;;;;;17.45;38.88;101505.78;5047382;28;20388;-74
2022/04/21 03:12:11;;;;;;;10.73;5.30;;;;;;;17.05;39.54;101501.59;5047692;28;20025;-72
2022/04/21 03:14:38;;;;;;;10.90;6.23;;;;;;;17.19;38.87;101503.00;5049250;28;20476;-72
2022/04/21 03:17:05;;;;;;;11.10;5.47;;;;;;;17.75;38.11;101489.06;5050636;28;20560;-72
2022/04/21 03:19:30;;;;;;;9.80;5.07;;;;;;;17.51;38.28;101495.97;5048988;28;20036;-72
2022/04/21 03:24:39;;;;;;;9.67;5.13;;;;;;;16.47;40.42;101503.88;5050250;28;20055;-72
2022/04/21 03:27:05;;;;;;;10.77;5.50;;;;;;;16.50;40.51;101493.28;5032608;28;20028;-72
2022/04/21 03:29:31;;;;;;;8.53;4.93;;;;;;;16.69;40.35;101493.69;5032167;28;20074;-72
2022/04/21 03:31:56;;;;;;;10.77;5.57;;;;;;;16.99;39.76;101491.19;5048099;28;20116;-72
2022/04/21 03:34:22;;;;;;;7.93;4.83;;;;;;;16.92;39.41;101484.34;5045175;28;20024;-72
2022/04/21 03:36:49;;;;;;;8.17;5.27;;;;;;;15.82;41.51;101493.94;5045892;28;20072;-72
2022/04/21 03:39:20;;;;;;;10.43;5.47;;;;;;;16.46;39.98;101502.16;5063645;28;20036;-72
2022/04/21 03:41:46;;;;;;;11.27;5.93;;;;;;;16.63;40.20;101499.13;5076798;28;20055;-72
2022/04/21 03:44:11;;;;;;;10.93;6.37;;;;;;;16.63;39.68;101499.13;5048520;28;20061;-72
2022/04/21 03:46:38;;;;;;;9.27;5.50;;;;;;;16.61;40.08;101500.94;5048034;28;20028;-71
2022/04/21 03:49:04;;;;;;;10.30;5.30;;;;;;;16.42;40.53;101501.38;5049184;28;20021;-72
2022/04/21 03:51:31;;;;;;;12.93;5.33;;;;;;;16.27;40.57;101499.09;5047600;28;20373;-72
2022/04/21 03:53:56;;;;;;;10.93;5.90;;;;;;;16.56;39.91;101503.66;5048494;28;20025;-72
2022/04/21 03:56:22;;;;;;;9.47;5.10;;;;;;;16.56;39.81;101494.91;5031686;28;20611;-72
2022/04/21 03:58:48;;;;;;;8.17;4.90;;;;;;;16.66;40.19;101496.38;5037362;28;20046;-72
2022/04/21 04:01:14;;;;;;;14.00;5.97;;;;;;;16.69;39.57;101498.97;5047689;28;20033;-72
2022/04/21 04:03:40;;;;;;;10.67;5.60;;;;;;;16.35;40.37;101498.91;5049616;28;20025;-72
2022/04/21 04:10:51;;;;;;;9.10;5.97;;;;;;;17.26;38.71;101502.78;5036829;28;20040;-72
2022/04/21 04:11:38;;;;;;;10.53;5.93;;;;;;;17.09;38.98;101497.97;5033320;28;20048;-71
2022/04/21 04:14:05;;;;;;;8.67;5.27;;;;;;;16.90;39.77;101502.00;5049212;28;20021;-71
2022/04/21 04:16:34;;;;;;;11.40;5.53;;;;;;;16.78;39.76;101498.72;5030176;28;20392;-72
2022/04/21 04:19:05;;;;;;;11.13;6.07;;;;;;;17.13;39.32;101499.63;5046563;28;20400;-71
2022/04/21 04:21:31;;;;;;;8.53;5.47;;;;;;;16.72;39.93;101496.25;5043905;28;20071;-71
2022/04/21 04:23:57;;;;;;;8.67;5.40;;;;;;;17.42;38.55;101499.72;5049825;28;20162;-72
2022/04/21 04:26:22;;;;;;;11.20;5.57;;;;;;;16.56;40.07;101503.66;5047430;28;20029;-72
2022/04/21 04:28:49;;;;;;;11.47;6.10;;;;;;;16.39;40.80;101498.81;5047088;28;20032;-72
2022/04/21 04:31:15;;;;;;;8.33;5.00;;;;;;;16.31;40.95;101503.41;5047731;28;20108;-72
2022/04/21 04:33:40;;;;;;;12.43;5.87;;;;;;;16.82;39.78;101504.81;5042758;28;20031;-72
2022/04/21 04:36:06;;;;;;;11.73;5.83;;;;;;;16.95;40.02;101511.53;5048526;28;20043;-72
2022/04/21 04:38:31;;;;;;;8.40;5.60;;;;;;;17.55;38.39;101513.47;5047501;28;20119;-72
2022/04/21 04:42:15;;;;;;;10.67;6.43;;;;;;;17.16;39.00;101518.91;5042290;28;20489;-72
2022/04/21 04:43:41;;;;;;;8.67;5.63;;;;;;;16.58;39.90;101516.81;5044459;28;20040;-71
2022/04/21 04:48:51;;;;;;;10.00;5.83;;;;;;;17.05;39.33;101506.88;5048360;28;20079;-72
2022/04/21 04:51:17;;;;;;;11.87;5.60;;;;;;;16.93;39.10;101507.19;5040456;28;20485;-72
2022/04/21 04:53:42;;;;;;;9.10;5.13;;;;;;;16.44;40.42;101514.50;5042892;28;20163;-73
2022/04/21 04:56:08;;;;;;;10.87;5.57;;;;;;;16.92;39.78;101510.75;5047884;28;20070;-72
2022/04/21 04:58:33;;;;;;;9.63;5.67;;;;;;;16.87;39.74;101513.47;5050320;28;20040;-72
2022/04/21 05:00:59;;;;;;;12.47;5.23;;;;;;;16.64;39.76;101516.69;5043851;28;20029;-72
2022/04/21 05:03:25;;;;;;;11.17;5.53;;;;;;;16.78;39.87;101511.06;5043158;28;20036;-72
2022/04/21 05:05:51;;;;;;;14.50;5.53;;;;;;;17.32;38.72;101509.66;5050638;28;20029;-72
2022/04/21 05:08:16;;;;;;;11.50;5.30;;;;;;;16.70;39.93;101516.53;5042654;28;20036;-72
2022/04/21 05:10:42;;;;;;;13.00;5.50;;;;;;;17.32;39.05;101514.09;5035677;28;20016;-72
2022/04/21 05:13:07;;;;;;;9.47;5.40;;;;;;;16.68;39.90;101518.34;5051554;28;20044;-73
2022/04/21 05:15:33;;;;;;;10.03;5.67;;;;;;;17.23;39.12;101520.50;5052054;28;20429;-72
2022/04/21 05:17:58;;;;;;;14.37;5.53;;;;;;;17.01;39.49;101521.06;5048896;28;20043;-72
2022/04/21 05:20:24;;;;;;;8.90;5.33;;;;;;;17.31;38.79;101518.53;5034006;28;20033;-73
2022/04/21 05:22:58;;;;;;;9.23;5.30;;;;;;;16.50;40.23;101518.78;5018921;28;20033;-73
2022/04/21 05:25:27;;;;;;;8.27;5.43;;;;;;;17.10;39.42;101523.47;5042479;28;20033;-73
2022/04/21 05:27:52;;;;;;;11.80;6.43;;;;;;;17.25;38.68;101518.69;5052863;28;20438;-73
2022/04/21 05:33:02;;;;;;;12.73;5.07;;;;;;;17.20;39.16;101510.00;5053149;28;20512;-72
2022/04/21 05:35:28;;;;;;;12.03;6.10;;;;;;;15.91;41.35;101525.41;5053133;28;20029;-72
2022/04/21 05:37:54;;;;;;;10.80;5.63;;;;;;;17.22;38.70;101513.50;5051497;28;20028;-72
2022/04/21 05:40:20;;;;;;;17.70;5.70;;;;;;;17.03;39.49;101524.53;5034467;28;20423;-73
2022/04/21 05:42:49;;;;;;;9.60;5.47;;;;;;;16.78;40.16;101522.47;5052136;28;20028;-72
2022/04/21 05:45:15;;;;;;;10.00;5.27;;;;;;;17.42;39.13;101512.91;5052037;28;20033;-72
2022/04/21 05:47:41;;;;;;;9.57;5.63;;;;;;;17.07;39.39;101520.91;5050851;28;20078;-73
2022/04/21 05:50:08;;;;;;;8.03;5.63;;;;;;;17.13;39.72;101515.47;5051066;28;20473;-73
2022/04/21 05:52:38;;;;;;;8.87;5.27;;;;;;;16.81;40.18;101520.69;5012345;28;20037;-73
2022/04/21 05:55:03;;;;;;;6.80;4.57;;;;;;;16.99;40.46;101520.22;5051388;28;20212;-73
2022/04/21 05:57:32;;;;;;;10.40;5.40;;;;;;;17.88;37.59;101513.38;5051312;28;20116;-72
2022/04/21 05:59:57;;;;;;;7.80;5.13;;;;;;;17.85;37.75;101516.13;5050365;28;20035;-72
2022/04/21 06:02:23;;;;;;;7.40;5.10;;;;;;;17.91;37.63;101518.56;5045869;28;20400;-73
2022/04/21 06:04:48;;;;;;;12.57;5.30;;;;;;;17.75;37.52;101516.41;5049979;28;20815;-73
2022/04/21 06:07:14;;;;;;;8.00;4.93;;;;;;;17.74;37.10;101522.59;5050870;28;20059;-72
2022/04/21 06:09:41;;;;;;;8.73;4.60;;;;;;;18.28;35.71;101520.13;5046985;28;20104;-72
2022/04/21 06:12:07;;;;;;;9.83;4.57;;;;;;;19.32;34.71;101517.59;5044244;28;20142;-73
2022/04/21 06:14:32;;;;;;;12.43;5.07;;;;;;;18.84;35.22;101521.84;5048775;28;20021;-73
2022/04/21 06:16:59;;;;;;;16.63;5.33;;;;;;;19.04;35.39;101518.56;5050091;28;20020;-73
2022/04/21 06:19:24;;;;;;;10.03;5.53;;;;;;;17.69;37.48;101529.78;5050397;28;20029;-73
2022/04/21 06:21:50;;;;;;;8.37;5.37;;;;;;;19.77;33.98;101511.50;5046239;28;20103;-72
2022/04/21 06:24:15;;;;;;;8.93;5.00;;;;;;;18.78;35.18;101517.63;5036959;28;20063;-72
2022/04/21 06:26:42;;;;;;;9.20;5.13;;;;;;;18.58;36.33;101506.84;5044334;28;20049;-73
2022/04/21 06:29:08;;;;;;;23.27;6.87;;;;;;;18.33;36.68;101515.56;5046010;28;20029;-72
2022/04/21 06:31:36;;;;;;;16.30;6.13;;;;;;;18.46;36.21;101511.63;5055470;28;20114;-73
2022/04/21 06:34:02;;;;;;;9.57;5.53;;;;;;;18.67;36.25;101509.19;5047679;28;20087;-73
2022/04/21 06:36:27;;;;;;;9.23;4.97;;;;;;;19.57;34.93;101506.09;5050387;28;20021;-73
2022/04/21 06:38:53;;;;;;;11.00;5.53;;;;;;;19.50;35.08;101511.59;5051251;28;20096;-73
2022/04/21 06:41:18;;;;;;;10.60;4.93;;;;;;;19.37;35.10;101505.03;5051891;28;20040;-72
2022/04/21 06:49:11;;;;;;;9.03;5.03;;;;;;;18.93;35.51;101505.69;5051658;28;20036;-72
2022/04/21 06:51:36;;;;;;;10.10;4.90;;;;;;;19.53;34.32;101504.47;5049698;28;20025;-72
2022/04/21 06:54:02;;;;;;;10.03;4.67;;;;;;;19.15;34.62;101500.50;5032316;28;20033;-72
2022/04/21 06:56:27;;;;;;;7.37;4.40;;;;;;;19.24;35.41;101504.59;5047088;28;20043;-72
2022/04/21 06:58:53;;;;;;;9.60;4.57;;;;;;;18.13;36.10;101503.84;5050937;28;20125;-73
2022/04/21 07:01:18;;;;;;;9.27;5.23;;;;;;;18.22;36.36;101513.25;5049913;28;20025;-72
2022/04/21 07:03:45;;;;;;;11.37;4.90;;;;;;;18.91;35.29;101511.94;5049471;28;20086;-72
2022/04/21 07:06:11;;;;;;;8.20;4.77;;;;;;;18.14;37.46;101505.53;5050051;28;20552;-72
2022/04/21 07:08:37;;;;;;;9.80;5.17;;;;;;;18.43;36.47;101511.69;5049303;28;20104;-72
2022/04/21 07:11:02;;;;;;;8.60;4.80;;;;;;;18.64;36.44;101509.25;5047738;28;20056;-72
2022/04/21 07:13:27;;;;;;;7.73;4.80;;;;;;;19.18;34.99;101503.94;5051561;28;20087;-72
2022/04/21 07:15:54;;;;;;;6.70;4.47;;;;;;;20.12;33.75;101509.28;5048133;28;20465;-73
2022/04/21 07:18:19;;;;;;;9.27;5.00;;;;;;;21.43;31.87;101500.31;5029142;28;20021;-72
2022/04/21 07:20:45;;;;;;;11.73;4.63;;;;;;;22.70;30.06;101497.00;5039144;28;20082;-72
2022/04/21 07:23:10;;;;;;;7.60;4.85;;;;;;;24.19;27.48;101498.88;5046409;28;20021;-72
2022/04/21 07:25:35;;;;;;;10.07;4.15;;;;;;;24.60;26.43;101492.06;5048388;28;20036;-72
2022/04/21 07:28:01;;;;;;;8.15;3.70;;;;;;;26.16;23.87;101490.53;5047505;28;20021;-72
2022/04/21 07:30:27;;;;;;;6.80;4.05;;;;;;;26.41;23.08;101484.41;5041855;28;20457;-72
2022/04/21 07:32:52;;;;;;;6.75;3.88;;;;;;;26.69;22.98;101487.03;5029865;28;20438;-72
2022/04/21 07:35:18;;;;;;;6.55;4.07;;;;;;;27.72;22.02;101487.91;5044697;28;20032;-72
2022/04/21 07:37:44;;;;;;;7.45;3.75;;;;;;;27.75;22.55;101486.84;5048745;28;20171;-72
2022/04/21 07:40:10;;;;;;;5.32;3.88;;;;;;;28.79;20.55;101492.66;5048841;28;20037;-73
2022/04/21 07:42:35;;;;;;;5.70;4.03;;;;;;;28.05;21.70;101488.28;5048369;28;20366;-74
2022/04/21 07:45:01;;;;;;;8.57;4.70;;;;;;;27.61;21.65;101490.53;5046690;28;20032;-73
2022/04/21 07:47:27;;;;;;;5.65;3.97;;;;;;;29.12;20.75;101494.53;5041523;28;20386;-73
2022/04/21 07:49:52;;;;;;;6.07;4.10;;;;;;;28.71;20.91;101495.94;5037881;28;20021;-73
2022/04/21 07:55:07;;;;;;;5.90;3.85;;;;;;;28.74;20.72;101501.06;5050689;28;20035;-73
2022/04/21 07:57:32;;;;;;;4.65;3.67;;;;;;;29.67;20.29;101494.69;5032326;28;20049;-73
2022/04/21 07:59:57;;;;;;;7.38;3.40;;;;;;;28.85;20.24;101498.44;5047479;28;20163;-72
2022/04/21 08:02:23;;;;;;;5.78;4.00;;;;;;;29.92;20.10;101496.28;5041925;28;20041;-73
2022/04/21 08:04:49;;;;;;;18.83;5.05;;;;;;;31.05;18.93;101507.59;5047977;28;20028;-73
2022/04/21 08:07:14;;;;;;;6.10;4.10;;;;;;;29.53;19.44;101506.59;5048529;28;20108;-74
2022/04/21 08:09:40;;;;;;;6.20;3.50;;;;;;;30.09;19.64;101491.34;5048453;28;20032;-73
2022/04/21 08:12:07;;;;;;;7.18;4.32;;;;;;;29.52;20.51;101507.56;5046407;28;20024;-73
2022/04/21 08:14:32;;;;;;;6.28;3.67;;;;;;;30.39;19.14;101500.53;5046020;28;20029;-74
2022/04/21 08:16:58;;;;;;;5.35;3.70;;;;;;;30.43;19.13;101499.28;5050056;28;20071;-72
2022/04/21 08:19:23;;;;;;;4.75;3.40;;;;;;;29.65;20.40;101509.25;5049789;28;20043;-73
2022/04/21 08:21:48;;;;;;;4.97;3.40;;;;;;;30.60;20.34;101506.84;5046709;28;20232;-72
2022/04/21 08:32:45;;;;;;;3.90;3.10;;;;;;;31.17;17.99;101511.91;5046302;28;20036;-72
2022/04/21 08:35:15;;;;;;;6.30;3.63;;;;;;;30.89;19.00;101508.06;5046716;28;20063;-72
2022/04/21 08:37:42;;;;;;;6.10;3.50;;;;;;;30.26;18.84;101506.97;5016111;28;20022;-72
2022/04/21 08:40:11;;;;;;;7.13;3.80;;;;;;;30.27;19.23;101508.69;5041711;28;20028;-72
2022/04/21 08:42:41;;;;;;;5.10;3.28;;;;;;;30.94;18.80;101505.78;5049158;28;20055;-72
2022/04/21 08:45:08;;;;;;;6.13;4.07;;;;;;;31.27;18.56;101504.75;5053902;28;20027;-73
2022/04/21 08:47:36;;;;;;;6.32;3.05;;;;;;;30.22;19.16;101505.50;5052068;28;20035;-72
2022/04/21 08:50:06;;;;;;;4.63;3.85;;;;;;;30.64;18.85;101504.75;5050675;28;20082;-73
2022/04/21 08:52:34;;;;;;;4.28;3.33;;;;;;;29.14;19.89;101506.06;5053419;28;20025;-72
2022/04/21 08:55:00;;;;;;;5.65;3.35;;;;;;;27.98;21.25;101503.97;5053560;28;20067;-72
2022/04/21 08:57:27;;;;;;;5.30;3.28;;;;;;;29.14;20.52;101508.75;5060631;28;20135;-73
2022/04/21 08:59:53;;;;;;;4.85;3.13;;;;;;;31.25;19.13;101504.00;5047567;28;20143;-72
2022/04/21 09:02:18;;;;;;;8.30;2.80;;;;;;;30.33;19.21;101495.69;5054004;28;20171;-72
2022/04/21 09:04:43;;;;;;;4.35;2.47;;;;;;;31.28;19.26;101498.38;5049545;28;20031;-72
2022/04/21 09:07:17;;;;;;;3.45;2.70;;;;;;;29.08;20.04;101506.53;5035363;28;20043;-72
2022/04/21 09:10:00;;;;;;;6.88;3.00;;;;;;;30.35;19.29;101494.56;5037459;28;20033;-73
2022/04/21 09:12:26;;;;;;;6.60;3.03;;;;;;;30.91;19.52;101496.16;5049480;28;20562;-72
2022/04/21 09:14:51;;;;;;;4.28;3.00;;;;;;;30.16;19.27;101495.25;5050761;28;20128;-72
2022/04/21 09:17:16;;;;;;;6.00;3.38;;;;;;;30.41;19.51;101490.50;5052938;28;20021;-73
2022/04/21 09:19:56;;;;;;;3.65;2.70;;;;;;;29.91;19.00;101491.88;5052149;28;20050;-73
2022/04/21 09:22:21;;;;;;;4.82;3.35;;;;;;;31.13;18.29;101491.59;5051651;28;20041;-73
2022/04/21 09:24:47;;;;;;;3.97;3.33;;;;;;;30.96;18.59;101498.44;5050141;28;20404;-72
2022/04/21 09:27:12;;;;;;;5.85;3.90;;;;;;;31.46;18.45;101489.59;5052062;28;20035;-73
2022/04/21 09:29:37;;;;;;;7.55;3.05;;;;;;;30.79;18.93;101492.66;5051324;28;20604;-72
2022/04/21 09:32:04;;;;;;;5.22;3.97;;;;;;;30.48;19.10;101498.97;5052996;28;20033;-73
2022/04/21 09:34:30;;;;;;;4.13;3.00;;;;;;;29.53;20.05;101492.28;5051628;28;20059;-73
2022/04/21 09:36:57;;;;;;;6.40;3.00;;;;;;;29.05;20.46;101496.00;5052327;28;20036;-73
2022/04/21 09:39:23;;;;;;;4.43;2.95;;;;;;;31.54;18.32;101481.66;5050062;28;20388;-73
2022/04/21 09:41:55;;;;;;;10.85;3.53;;;;;;;31.56;18.07;101485.09;5040656;28;20029;-73
2022/04/21 09:47:20;;;;;;;4.20;2.75;;;;;;;29.05;19.78;101493.31;5058385;28;20122;-73
2022/04/21 09:49:46;;;;;;;5.63;2.75;;;;;;;29.61;19.93;101482.59;5052751;28;20029;-72
2022/04/21 09:52:12;;;;;;;3.92;2.83;;;;;;;30.86;18.64;101478.63;5066464;28;20178;-72
2022/04/21 09:54:40;;;;;;;4.30;2.90;;;;;;;30.65;19.51;101478.63;5050398;28;20039;-74
2022/04/21 09:57:07;;;;;;;3.60;2.95;;;;;;;30.89;19.05;101471.13;5051785;28;20480;-72
2022/04/21 09:59:35;;;;;;;8.52;3.00;;;;;;;30.73;19.29;101468.88;5051344;28;20170;-72
2022/04/21 10:02:03;;;;;;;4.35;3.05;;;;;;;30.71;19.01;101470.03;5050443;28;20544;-73
2022/04/21 10:04:30;;;;;;;4.78;3.03;;;;;;;30.50;18.39;101464.59;5034560;28;20063;-73
2022/04/21 10:06:57;;;;;;;3.63;2.85;;;;;;;29.91;19.79;101464.94;5050928;28;20062;-72
2022/04/21 10:09:23;;;;;;;3.88;2.97;;;;;;;31.20;17.70;101456.81;5048202;28;20025;-73
2022/04/21 10:11:51;;;;;;;3.50;2.50;;;;;;;31.85;17.92;101456.44;5044494;28;20043;-72
2022/04/21 10:14:17;;;;;;;5.32;2.60;;;;;;;31.81;17.03;101455.91;5037204;28;20503;-72
2022/04/21 10:16:43;;;;;;;6.32;2.92;;;;;;;31.32;17.85;101450.31;5049637;28;20021;-73
2022/04/21 10:19:10;;;;;;;3.33;2.55;;;;;;;31.91;18.12;101451.34;5049237;28;20037;-73
2022/04/21 10:21:53;;;;;;;3.22;2.58;;;;;;;31.84;16.46;101443.97;5048712;28;20060;-73
2022/04/21 10:24:24;;;;;;;3.40;2.30;;;;;;;32.08;15.96;101448.94;5041319;28;20033;-74
2022/04/21 10:26:50;;;;;;;2.70;2.17;;;;;;;30.02;17.44;101444.31;5046771;28;20770;-74
2022/04/21 10:29:17;;;;;;;3.97;2.40;;;;;;;31.48;16.56;101444.41;5047010;28;20028;-74
2022/04/21 10:32:03;;;;;;;2.88;2.33;;;;;;;31.10;16.24;101432.47;5048170;28;20028;-74
2022/04/21 10:34:28;;;;;;;4.53;2.00;;;;;;;30.07;17.08;101426.78;5051558;28;20079;-74
2022/04/21 10:37:32;;;;;;;2.33;2.00;;;;;;;29.34;16.78;101431.81;5049593;28;20044;-74
2022/04/21 10:40:06;;;;;;;2.30;2.10;;;;;;;29.41;16.86;101434.88;5045942;28;20123;-74
2022/04/21 10:42:57;;;;;;;2.22;1.83;;;;;;;30.82;16.12;101431.31;5050142;28;20029;-73
2022/04/21 10:45:25;;;;;;;2.53;2.15;;;;;;;30.16;16.76;101425.16;5051336;28;20024;-74
2022/04/21 10:48:12;;;;;;;3.40;2.20;;;;;;;31.23;15.85;101425.00;5049002;28;20032;-74
2022/04/21 10:50:39;;;;;;;2.05;1.85;;;;;;;30.60;15.63;101417.84;5048572;28;20040;-74
2022/04/21 10:58:36;;;;;;;5.00;1.77;;;;;;;31.46;14.44;101405.88;5030783;28;20036;-74
2022/04/21 11:01:09;;;;;;;1.83;1.63;;;;;;;30.52;15.68;101414.94;5047030;28;20037;-74
2022/04/21 11:03:36;;;;;;;7.47;1.75;;;;;;;29.07;15.71;101405.25;5047516;28;20425;-72
2022/04/21 11:06:05;;;;;;;2.67;1.65;;;;;;;28.41;16.45;101403.16;5029640;28;20034;-74
2022/04/21 11:08:31;;;;;;;2.08;1.30;;;;;;;29.00;16.05;101410.25;5044962;28;20040;-73
2022/04/21 11:10:56;;;;;;;2.05;1.42;;;;;;;30.06;15.57;101397.25;5049238;28;20039;-74
2022/04/21 11:13:40;;;;;;;2.28;1.27;;;;;;;30.85;14.91;101399.53;5048397;28;20112;-74
2022/04/21 11:16:06;;;;;;;3.35;1.45;;;;;;;29.57;14.92;101392.25;5051567;28;20021;-75
2022/04/21 11:18:31;;;;;;;2.17;1.65;;;;;;;29.52;15.79;101389.06;5046843;28;20036;-74
2022/04/21 11:21:38;;;;;;;1.65;1.23;;;;;;;31.01;14.95;101387.38;5046354;28;20044;-75
2022/04/21 11:24:04;;;;;;;2.15;1.38;;;;;;;31.21;14.09;101383.78;5044629;28;20048;-73
2022/04/21 11:26:29;;;;;;;2.10;1.25;;;;;;;31.97;14.24;101379.66;5045391;28;20029;-73
2022/04/21 11:29:01;;;;;;;1.75;1.42;;;;;;;31.40;14.56;101382.97;5044527;28;20052;-74
2022/04/21 11:31:26;;;;;;;4.50;1.30;;;;;;;29.21;15.43;101386.19;5045978;28;20032;-74
2022/04/21 11:33:52;;;;;;;1.67;1.40;;;;;;;29.11;16.37;101382.50;5045867;28;20024;-74
2022/04/21 11:36:17;;;;;;;2.60;1.50;;;;;;;31.19;14.79;101372.28;5050785;28;20028;-74
2022/04/21 11:38:44;;;;;;;1.63;1.20;;;;;;;29.96;15.75;101381.03;5050269;28;20033;-75
2022/04/21 11:41:12;;;;;;;1.27;1.17;;;;;;;29.56;15.25;101371.69;5033407;28;20036;-75
2022/04/21 11:43:48;;;;;;;2.65;1.42;;;;;;;30.21;14.13;101379.81;5048856;28;20115;-74
2022/04/21 11:46:13;;;;;;;2.70;1.50;;;;;;;31.42;14.34;101374.75;5050492;28;20040;-74
2022/04/21 11:48:41;;;;;;;3.30;1.58;;;;;;;31.26;14.69;101365.31;5039233;28;20029;-74
2022/04/21 11:51:08;;;;;;;3.00;1.83;;;;;;;33.03;13.73;101359.78;5058743;28;20052;-74
2022/04/21 11:53:40;;;;;;;6.72;1.38;;;;;;;30.63;14.57;101366.31;5047896;28;20024;-74
2022/04/21 11:56:07;;;;;;;;;;;;;;;30.90;14.30;101373.00;5049750;28;20478;-75
2022/04/21 11:58:41;;;;;;;7.32;1.75;;;;;;;30.95;14.22;101362.66;5049940;28;19922;-74
2022/04/21 12:06:56;;;;;;;3.50;2.03;;;;;;;29.34;15.30;101364.53;5050249;28;20111;-74
2022/04/21 12:09:26;;;;;;;2.53;1.70;;;;;;;30.62;14.62;101356.53;5048722;28;20481;-75
2022/04/21 12:12:00;;;;;;;2.85;2.38;;;;;;;29.80;15.50;101354.50;5048858;28;20029;-74
2022/04/21 12:14:26;;;;;;;2.50;1.60;;;;;;;29.74;15.64;101355.84;5046606;28;20451;-75